Погода METAR - Красноярск

Кемерово, Абакан, Красноярск, Новосибирск
Код METAR: UNKL 270330Z 25003MPS 9999 BKN012CB 07/05 Q1027 R11/290055 NOSIG RMK QFE744

Погода - Сейчас

Время: 2020-09-27 10:30, местное
Направление ветра: Запад-юго-запад (250°)
Скорость ветра: 3 м/с
Видимость:
Температура: 7°C
Точка росы: 5°C
Атмосферное давление: 1027 гПа

Архив погоды

Время, местное Направление Скорость, м/с Температура, °C Точка росы, °C Давление, гПа
2020-09-27 10:30 ЗЮЗ (250°) 3 7 5 1027
2020-09-24 14:30 ЮВ (120°) 4 12 5 1005
2020-09-23 19:00 З (270°) 3 10 9 1009
2020-09-23 08:00 Штиль 0 7 4 1013
2020-09-22 19:00 ЗЮЗ (260°) 3 18 9 1012
2020-09-22 12:30 В (90°) 3 19 11 1011
2020-09-20 22:00 Штиль 0 8 8 1021
2020-09-20 07:00 ЮЗ (220°) 1 9 7 1021
2020-09-20 06:30 ЗЮЗ (250°) 2 9 7 1021
2020-09-19 11:00 ЗЮЗ (240°) 6, порывы до 12 14 6 1017
2020-09-19 00:00 ЮЗ (220°) 3 10 9 1015
2020-09-17 21:30 Переменный 1 12 10 1008
2020-09-17 13:30 Переменный 1 21 10 1009
2020-09-16 05:30 Штиль 0 3 3 1011
2020-09-15 09:00 Штиль 0 9 5 1019
2020-09-15 04:30 Штиль 0 2 2 1020
2020-09-15 03:00 ЗСЗ (290°) 1 4 3 1020
2020-09-14 17:00 Ю (180°) 2 18 5 1021
2020-09-11 23:00 Штиль 0 5 4 1028
2020-09-10 18:30 ЗЮЗ (250°) 1 12 6 1020
2020-09-10 16:00 ЗЮЗ (260°) 2 13 5 1019
2020-09-10 04:00 ЗСЗ (290°) 2 2 1 1019
2020-09-10 02:00 Переменный 1 4 4 1018
2020-09-09 03:00 Штиль 0 6 6 1016
2020-09-09 01:00 Штиль 0 7 7 1017
2020-09-06 16:30 ЮВ (130°) 3 14 5 1015
2020-09-06 04:00 Переменный 1 2 1 1017
2020-09-05 16:00 ЮЗ (220°) 6 14 3 1012
2020-09-05 07:30 ЗЮЗ (240°) 3 9 7 1012
2020-09-03 10:30 ЮЗ (210°) 7, порывы до 14 21 15 1002
2020-09-01 17:00 ЮЗ (220°) 4 22 10 1007
2020-08-24 22:30 Штиль 0 10 9 1005
2020-08-24 13:30 ЮЗ (230°) 3 18 12 1004
2020-08-24 06:00 Штиль 0 11 11 1004
2020-08-22 13:30 ЮЮВ (150°) 2 20 12 1006
2020-08-21 03:30 Переменный 1 9 8 1008
2020-08-20 07:00 Переменный 2, порывы до 7 14 13 1006
2020-08-19 21:00 Переменный 1 14 13 1006
2020-08-19 18:30 Ю (190°) 2 18 15 1006
2020-08-19 17:30 ЮЮВ (160°) 2 17 15 1006
2020-08-19 08:00 З (270°) 6 18 14 1003
2020-08-19 07:30 ЗСЗ (290°) 5 18 14 1002
2020-08-19 04:00 Переменный 1 13 13 1002
2020-08-18 17:30 ЮВ (140°) 4 25 16 1002
2020-08-18 16:30 ЮВ (130°) 3 25 17 1003
2020-08-18 14:00 ВЮВ (110°) 3 24 15 1003
2020-08-18 08:30 В (100°) 2 15 11 1005
2020-08-17 23:30 ЮЮВ (160°) 1 12 10 1007